createdAt,value
2023-04-01T05:45:31.328Z,8.90
2023-04-01T05:50:33.485Z,8.90
2023-04-01T05:55:36.920Z,9.00
2023-04-01T06:00:38.764Z,9.00
2023-04-01T06:05:44.684Z,9.00
2023-04-01T06:10:46.510Z,9.00
2023-04-01T06:16:19.490Z,9.10
2023-04-01T06:21:33.419Z,9.10
2023-04-01T06:26:52.801Z,9.10
2023-04-01T06:32:07.547Z,9.10
2023-04-01T06:37:28.066Z,9.20
2023-04-01T06:42:38.861Z,9.20
2023-04-01T06:48:03.872Z,9.30
2023-04-01T06:53:05.817Z,9.30
2023-04-01T06:58:16.761Z,9.40
2023-04-01T07:03:24.598Z,9.40
2023-04-01T07:08:29.111Z,9.50
2023-04-01T07:13:39.940Z,9.50
2023-04-01T07:18:45.843Z,9.50
2023-04-01T07:23:48.558Z,9.60
2023-04-01T07:28:52.461Z,9.60
2023-04-01T07:34:19.648Z,9.60
2023-04-01T07:39:54.492Z,9.60
2023-04-01T07:45:06.938Z,9.60
2023-04-01T07:50:16.896Z,9.60
2023-04-01T07:55:26.639Z,9.60
2023-04-01T08:00:37.934Z,9.70
2023-04-01T08:05:52.072Z,9.70
2023-04-01T08:10:58.902Z,9.80
2023-04-01T08:16:11.402Z,9.80
2023-04-01T08:21:25.418Z,9.90
2023-04-01T08:26:38.226Z,9.90
2023-04-01T08:31:40.039Z,10.00
2023-04-01T08:36:44.715Z,10.00
2023-04-01T08:42:24.511Z,10.10
2023-04-01T08:47:47.991Z,10.10
2023-04-01T08:53:27.483Z,10.10
2023-04-01T08:58:38.390Z,10.10
2023-04-01T09:04:14.007Z,10.10
2023-04-01T09:09:34.042Z,10.10
2023-04-01T09:15:14.223Z,10.10
2023-04-01T09:21:11.697Z,10.10
2023-04-01T09:26:19.363Z,10.10
2023-04-01T09:31:39.888Z,10.10
2023-04-01T09:36:48.434Z,10.20
2023-04-01T09:41:56.437Z,10.10
2023-04-01T09:47:26.186Z,10.10
2023-04-01T09:52:46.456Z,10.10
2023-04-01T09:58:12.680Z,10.00
2023-04-01T10:03:36.463Z,10.00
2023-04-01T10:08:53.268Z,10.00
2023-04-01T10:14:05.964Z,10.00
2023-04-01T10:19:39.315Z,10.00
2023-04-01T10:24:50.526Z,10.00
2023-04-01T10:30:23.147Z,10.00
2023-04-01T10:35:46.364Z,10.00
2023-04-01T10:41:19.029Z,10.00
2023-04-01T10:46:56.152Z,10.00
2023-04-01T10:52:05.842Z,10.00
2023-04-01T10:57:29.475Z,10.00
2023-04-01T11:02:51.940Z,10.00
2023-04-01T11:08:06.100Z,10.00
2023-04-01T11:13:39.674Z,10.00
2023-04-01T11:19:06.559Z,10.10
2023-04-01T11:24:26.984Z,10.10
2023-04-01T11:29:58.744Z,10.10
2023-04-01T11:35:21.137Z,10.20
2023-04-01T11:40:48.437Z,10.20
2023-04-01T11:45:59.409Z,10.10
2023-04-01T11:51:42.024Z,10.20
2023-04-01T11:56:50.025Z,10.20
2023-04-01T12:02:10.503Z,10.20
2023-04-01T12:07:30.904Z,10.20
2023-04-01T12:13:05.942Z,10.20
2023-04-01T12:18:29.471Z,10.20
2023-04-01T12:23:58.192Z,10.20
2023-04-01T12:29:15.736Z,10.20
2023-04-01T12:34:28.260Z,10.20
2023-04-01T12:39:40.723Z,10.20
2023-04-01T12:45:20.115Z,10.10
2023-04-01T12:50:41.121Z,10.20
2023-04-01T12:55:44.094Z,10.10
2023-04-01T13:00:49.596Z,10.00
2023-04-01T13:06:09.442Z,10.00
2023-04-01T13:11:21.803Z,10.00
2023-04-01T13:16:48.223Z,10.00
2023-04-01T13:22:00.755Z,10.00
2023-04-01T13:27:10.720Z,10.00
2023-04-01T13:32:18.635Z,10.00
2023-04-01T13:37:41.865Z,10.00
2023-04-01T13:43:22.194Z,10.00
2023-04-01T13:48:32.937Z,10.00
2023-04-01T13:53:59.341Z,10.00
2023-04-01T13:59:16.546Z,10.00
2023-04-01T14:04:49.637Z,10.00
2023-04-01T14:10:00.799Z,10.00
2023-04-01T14:15:44.747Z,10.00
2023-04-01T14:21:14.596Z,10.00
2023-04-01T14:26:28.710Z,10.00
2023-04-01T14:31:30.534Z,10.00
2023-04-01T14:37:06.465Z,10.00
2023-04-01T14:42:29.585Z,10.00
2023-04-01T14:47:54.987Z,10.10
2023-04-01T14:53:17.038Z,10.00
2023-04-01T14:58:20.962Z,10.10
2023-04-01T15:03:41.910Z,10.10
2023-04-01T15:08:59.301Z,10.00
2023-04-01T15:14:07.224Z,10.10
2023-04-01T15:19:14.785Z,10.10
2023-04-01T15:24:36.665Z,10.10
2023-04-01T15:30:05.825Z,10.00
2023-04-01T15:35:13.571Z,10.10
2023-04-01T15:40:23.971Z,10.10
2023-04-01T15:45:47.462Z,10.10
2023-04-01T15:50:52.333Z,10.10
2023-04-01T15:55:54.152Z,10.20
2023-04-01T16:01:32.211Z,10.20
2023-04-01T16:06:49.853Z,10.10
2023-04-01T16:11:57.888Z,10.10
2023-04-01T16:17:34.709Z,10.10
2023-04-01T16:22:39.817Z,10.10
2023-04-01T16:28:00.009Z,10.00
2023-04-01T16:33:22.233Z,10.00
2023-04-01T16:38:30.431Z,10.00
2023-04-01T16:43:52.780Z,10.10
2023-04-01T16:49:01.833Z,10.10
2023-04-01T16:54:08.097Z,10.00
2023-04-01T16:59:16.168Z,10.10
2023-04-01T17:04:32.030Z,10.10
2023-04-01T17:09:46.519Z,10.10
2023-04-01T17:15:13.546Z,10.10
2023-04-01T17:20:27.364Z,10.10
2023-04-01T17:25:50.910Z,10.10
2023-04-01T17:31:16.175Z,10.10
2023-04-01T17:36:24.332Z,10.20
2023-04-01T17:41:41.517Z,10.20
2023-04-01T17:46:46.448Z,10.20
2023-04-01T17:51:59.260Z,10.20
2023-04-01T17:57:32.400Z,10.20
2023-04-01T18:02:41.264Z,10.20
2023-04-01T18:08:10.050Z,10.20
2023-04-01T18:13:50.545Z,10.20
